Time;durP1;ratioP1;P1;durP2;ratioP2;P2;SDS_P1;SDS_P2;PMS_P1;PMS_P2;Temp;Humidity;BMP_temperature;BMP_pressure;BME280_temperature;BME280_humidity;BME280_pressure;Samples;Min_cycle;Max_cycle;Signal;HPM_P1;HPM_P2
2024/02/11 00:00:45;;;;;;;23.50;10.33;;;8.70;99.90;;;;;;4412917;28;658859;-75
2024/02/11 00:03:32;;;;;;;30.00;11.70;;;8.70;99.90;;;;;;4409553;28;658675;-75
2024/02/11 00:06:20;;;;;;;27.07;11.10;;;8.70;99.90;;;;;;4431198;28;659397;-74
2024/02/11 00:09:08;;;;;;;24.10;11.17;;;8.80;99.90;;;;;;4429583;28;658711;-74
2024/02/11 00:11:56;;;;;;;30.30;12.60;;;8.70;99.90;;;;;;4398955;28;659288;-74
2024/02/11 00:14:44;;;;;;;34.03;12.67;;;8.70;99.90;;;;;;4407946;28;659273;-74
2024/02/11 00:17:33;;;;;;;27.70;12.60;;;8.60;99.90;;;;;;4418833;28;658812;-74
2024/02/11 00:20:20;;;;;;;31.23;10.60;;;8.60;99.90;;;;;;4411156;28;659289;-74
2024/02/11 00:23:08;;;;;;;28.13;10.73;;;8.60;99.90;;;;;;4427687;28;659179;-74
2024/02/11 00:25:55;;;;;;;32.13;10.87;;;8.60;99.90;;;;;;4424323;28;660376;-74
2024/02/11 00:28:42;;;;;;;27.73;9.60;;;8.60;99.90;;;;;;4426886;28;658603;-74
2024/02/11 00:31:30;;;;;;;24.50;10.93;;;8.60;99.90;;;;;;4444954;28;657894;-74
2024/02/11 00:34:19;;;;;;;29.07;9.50;;;8.60;99.90;;;;;;4428301;28;658748;-75
2024/02/11 00:37:10;;;;;;;21.03;9.27;;;8.50;99.90;;;;;;4427639;28;657646;-75
2024/02/11 00:39:57;;;;;;;19.23;9.17;;;8.50;99.90;;;;;;4398617;28;657642;-75
2024/02/11 00:42:45;;;;;;;24.00;9.30;;;8.50;99.90;;;;;;4438448;28;658502;-74
2024/02/11 00:45:33;;;;;;;28.57;10.30;;;8.60;99.90;;;;;;4419959;28;658224;-75
2024/02/11 00:48:20;;;;;;;30.20;10.07;;;8.50;99.90;;;;;;4436632;28;659105;-75
2024/02/11 00:51:10;;;;;;;20.93;9.80;;;8.50;99.90;;;;;;4434007;28;659334;-75
2024/02/11 00:53:59;;;;;;;25.25;10.00;;;8.40;99.90;;;;;;4419919;28;658269;-75
2024/02/11 00:56:46;;;;;;;25.53;9.57;;;8.40;99.90;;;;;;4427967;28;658352;-74
2024/02/11 00:59:34;;;;;;;26.33;9.77;;;8.30;99.90;;;;;;4417878;28;658116;-75
2024/02/11 01:02:22;;;;;;;22.53;8.63;;;8.20;99.90;;;;;;4432428;28;658138;-74
2024/02/11 01:05:10;;;;;;;17.13;9.40;;;8.20;99.90;;;;;;4415521;28;657852;-74
2024/02/11 01:08:01;;;;;;;25.33;9.50;;;8.20;99.90;;;;;;4422374;28;658050;-74
2024/02/11 01:10:49;;;;;;;25.10;10.70;;;8.20;99.90;;;;;;4408225;28;657349;-75
2024/02/11 01:13:36;;;;;;;23.43;8.50;;;8.10;99.90;;;;;;4435430;28;659272;-74
2024/02/11 01:16:23;;;;;;;20.73;8.87;;;8.20;99.90;;;;;;4416475;28;657708;-74
2024/02/11 01:19:11;;;;;;;23.73;10.23;;;8.10;99.90;;;;;;4431496;28;657930;-74
2024/02/11 01:21:58;;;;;;;21.13;9.53;;;8.10;99.90;;;;;;4413996;28;659365;-74
2024/02/11 01:24:47;;;;;;;21.30;9.40;;;8.10;99.90;;;;;;4428767;28;657638;-73
2024/02/11 01:27:37;;;;;;;32.17;9.07;;;8.10;99.90;;;;;;4409774;28;658372;-74
2024/02/11 01:30:25;;;;;;;25.33;10.73;;;8.10;99.90;;;;;;4422151;28;658018;-75
2024/02/11 01:33:12;;;;;;;33.47;10.20;;;8.00;99.90;;;;;;4433916;28;658520;-75
2024/02/11 01:35:59;;;;;;;25.40;10.20;;;8.00;99.90;;;;;;4413074;28;658655;-74
2024/02/11 01:38:46;;;;;;;30.13;11.17;;;8.10;99.90;;;;;;4434852;28;658656;-74
2024/02/11 01:41:37;;;;;;;31.97;11.53;;;8.10;99.90;;;;;;4407212;28;658956;-74
2024/02/11 01:44:26;;;;;;;24.70;9.83;;;8.10;99.90;;;;;;4392667;28;659548;-75
2024/02/11 01:47:13;;;;;;;26.03;10.43;;;8.10;99.90;;;;;;4415665;28;657543;-75
2024/02/11 01:50:01;;;;;;;29.42;10.68;;;8.10;99.90;;;;;;4429941;28;659420;-75
2024/02/11 01:52:48;;;;;;;24.23;10.40;;;8.10;99.90;;;;;;4414521;28;658519;-74
2024/02/11 01:55:36;;;;;;;27.27;10.20;;;8.10;99.90;;;;;;4435056;28;659523;-74
2024/02/11 01:58:24;;;;;;;24.57;10.43;;;8.00;99.90;;;;;;4407627;28;659298;-74
2024/02/11 02:01:11;;;;;;;28.57;10.60;;;8.00;99.90;;;;;;4426701;28;658488;-75
2024/02/11 02:03:59;;;;;;;28.40;10.50;;;8.00;99.90;;;;;;4409038;28;658339;-75
2024/02/11 02:06:46;;;;;;;23.07;8.50;;;7.90;99.90;;;;;;4424794;28;658535;-74
2024/02/11 02:09:33;;;;;;;24.00;8.50;;;7.90;99.90;;;;;;4404966;28;658388;-75
2024/02/11 02:12:21;;;;;;;36.80;12.17;;;8.00;99.90;;;;;;4415341;28;658324;-75
2024/02/11 02:15:10;;;;;;;33.30;11.07;;;7.90;99.90;;;;;;4411165;28;658160;-75
2024/02/11 02:17:57;;;;;;;36.77;11.20;;;7.90;99.90;;;;;;4417167;28;658568;-75
2024/02/11 02:20:46;;;;;;;35.57;12.00;;;7.90;99.90;;;;;;4413652;28;658889;-75
2024/02/11 02:23:35;;;;;;;28.57;10.27;;;7.90;99.90;;;;;;4423257;28;658760;-75
2024/02/11 02:26:22;;;;;;;25.80;9.13;;;8.00;99.90;;;;;;4436712;28;658397;-75
2024/02/11 02:29:10;;;;;;;28.70;9.47;;;8.00;99.90;;;;;;4428143;28;658982;-75
2024/02/11 02:31:57;;;;;;;29.17;9.67;;;8.00;99.90;;;;;;4426244;28;658652;-75
2024/02/11 02:34:46;;;;;;;21.27;9.53;;;8.00;99.90;;;;;;4426601;28;659006;-75
2024/02/11 02:37:33;;;;;;;25.03;9.87;;;7.90;99.90;;;;;;4407577;28;657916;-75
2024/02/11 02:40:26;;;;;;;28.10;9.57;;;8.00;99.90;;;;;;4430968;28;659037;-75
2024/02/11 02:43:13;;;;;;;28.20;9.75;;;8.00;99.90;;;;;;4407204;28;657542;-75
2024/02/11 02:46:00;;;;;;;30.45;10.27;;;8.00;99.90;;;;;;4421778;28;658624;-75
2024/02/11 02:48:49;;;;;;;25.43;9.33;;;8.00;99.90;;;;;;4397685;28;658297;-75
2024/02/11 02:51:39;;;;;;;24.30;8.73;;;8.00;99.90;;;;;;4419842;28;657988;-75
2024/02/11 02:54:26;;;;;;;22.97;8.60;;;8.00;99.90;;;;;;4415028;28;657357;-75
2024/02/11 02:57:15;;;;;;;23.33;9.20;;;8.00;99.90;;;;;;4416835;28;658597;-75
2024/02/11 03:00:03;;;;;;;20.57;8.63;;;8.00;99.90;;;;;;4435540;28;658306;-74
2024/02/11 03:02:52;;;;;;;19.70;9.43;;;8.00;99.90;;;;;;4413095;28;659227;-74
2024/02/11 03:05:41;;;;;;;25.33;9.00;;;7.90;99.90;;;;;;4414704;28;658142;-75
2024/02/11 03:08:28;;;;;;;29.97;8.97;;;7.90;99.90;;;;;;4405298;28;657997;-74
2024/02/11 03:11:15;;;;;;;19.87;8.17;;;8.00;99.90;;;;;;4436031;28;658213;-75
2024/02/11 03:14:06;;;;;;;27.53;7.70;;;8.00;99.90;;;;;;4412696;28;657534;-74
2024/02/11 03:16:53;;;;;;;26.87;8.50;;;8.00;99.90;;;;;;4415353;28;658052;-74
2024/02/11 03:19:41;;;;;;;22.10;8.77;;;8.00;99.90;;;;;;4435202;28;658793;-74
2024/02/11 03:22:28;;;;;;;24.27;8.70;;;7.90;99.90;;;;;;4415265;28;657626;-75
2024/02/11 03:25:16;;;;;;;22.27;10.03;;;7.90;99.90;;;;;;4433057;28;658464;-75
2024/02/11 03:28:03;;;;;;;25.47;9.27;;;7.80;99.90;;;;;;4400588;28;658795;-74
2024/02/11 03:30:52;;;;;;;23.03;9.37;;;7.70;99.90;;;;;;4414421;28;658032;-74
2024/02/11 03:33:39;;;;;;;23.87;10.67;;;7.80;99.90;;;;;;4394287;28;658677;-75
2024/02/11 03:36:26;;;;;;;23.47;10.50;;;7.80;99.90;;;;;;4414945;28;659309;-74
2024/02/11 03:39:15;;;;;;;32.40;10.63;;;7.80;99.90;;;;;;4389890;28;659035;-75
2024/02/11 03:42:04;;;;;;;24.25;10.05;;;7.80;99.90;;;;;;4414522;28;659472;-74
2024/02/11 03:44:51;;;;;;;27.10;10.23;;;7.70;99.90;;;;;;4439591;28;658231;-75
2024/02/11 03:47:40;;;;;;;33.73;10.10;;;7.70;99.90;;;;;;4402476;28;658565;-75
2024/02/11 03:50:27;;;;;;;19.07;9.70;;;7.70;99.90;;;;;;4410336;28;659046;-74
2024/02/11 03:53:20;;;;;;;30.13;12.03;;;7.70;99.90;;;;;;4429619;28;657894;-74
2024/02/11 03:56:08;;;;;;;29.77;11.37;;;7.60;99.90;;;;;;4389582;28;659258;-75
2024/02/11 03:58:55;;;;;;;32.67;11.53;;;7.60;99.90;;;;;;4434760;28;659834;-75
2024/02/11 04:01:44;;;;;;;27.30;12.20;;;7.50;99.90;;;;;;4395515;28;659393;-75
2024/02/11 04:04:33;;;;;;;28.92;12.77;;;7.60;99.90;;;;;;4427431;28;658297;-75
2024/02/11 04:07:20;;;;;;;32.10;16.07;;;7.50;99.90;;;;;;4411879;28;659019;-74
2024/02/11 04:10:17;;;;;;;37.87;16.67;;;7.60;99.90;;;;;;4416271;28;659174;-75
2024/02/11 04:13:04;;;;;;;35.63;17.30;;;7.60;99.90;;;;;;4395696;28;659219;-75
2024/02/11 04:15:53;;;;;;;45.17;19.43;;;7.60;99.90;;;;;;4442351;28;658818;-74
2024/02/11 04:18:40;;;;;;;38.20;18.13;;;7.70;99.90;;;;;;4413677;28;659031;-75
2024/02/11 04:21:35;;;;;;;41.17;18.37;;;7.70;99.90;;;;;;4426315;28;658688;-75
2024/02/11 04:24:23;;;;;;;34.47;15.00;;;7.70;99.90;;;;;;4423440;28;658649;-74
2024/02/11 04:27:14;;;;;;;30.83;13.80;;;7.70;99.90;;;;;;4409820;28;660113;-75
2024/02/11 04:30:03;;;;;;;26.33;12.47;;;7.80;99.90;;;;;;4405305;28;658568;-74
2024/02/11 04:32:51;;;;;;;27.50;11.80;;;7.80;99.90;;;;;;4408235;28;659174;-74
2024/02/11 04:35:39;;;;;;;31.27;10.90;;;7.80;99.90;;;;;;4412455;28;659001;-74
2024/02/11 04:38:28;;;;;;;28.13;11.53;;;7.90;99.90;;;;;;4445313;28;659875;-75
2024/02/11 04:41:17;;;;;;;32.60;11.67;;;7.90;99.90;;;;;;4415509;28;659366;-75
2024/02/11 04:44:05;;;;;;;29.23;11.37;;;8.00;99.90;;;;;;4408732;28;658619;-74
2024/02/11 04:46:53;;;;;;;28.70;11.03;;;7.90;99.90;;;;;;4426691;28;658569;-74
2024/02/11 04:49:41;;;;;;;24.13;11.33;;;7.90;99.90;;;;;;4433533;28;661777;-75
2024/02/11 04:52:28;;;;;;;32.17;10.63;;;7.90;99.90;;;;;;4393335;28;658995;-74
2024/02/11 04:55:18;;;;;;;26.10;10.33;;;7.90;99.90;;;;;;4431952;28;659898;-75
2024/02/11 04:58:07;;;;;;;28.25;10.07;;;7.90;99.90;;;;;;4406267;28;659650;-74
2024/02/11 05:00:54;;;;;;;25.93;10.80;;;7.90;99.90;;;;;;4404034;28;658642;-75
2024/02/11 05:03:44;;;;;;;27.67;10.17;;;7.90;99.90;;;;;;4440546;28;658668;-75
2024/02/11 05:06:32;;;;;;;26.00;10.57;;;7.90;99.90;;;;;;4406292;28;658476;-75
2024/02/11 05:09:19;;;;;;;23.47;10.53;;;7.80;99.90;;;;;;4405886;28;659039;-75
2024/02/11 05:12:09;;;;;;;28.30;9.87;;;7.80;99.90;;;;;;4411047;28;658357;-75
2024/02/11 05:14:56;;;;;;;19.67;9.67;;;7.80;99.90;;;;;;4402644;28;658196;-75
2024/02/11 05:17:46;;;;;;;24.40;9.50;;;7.80;99.90;;;;;;4412033;28;658195;-74
2024/02/11 05:20:33;;;;;;;26.57;9.90;;;7.70;99.90;;;;;;4416634;28;657964;-75
2024/02/11 05:23:21;;;;;;;25.17;9.93;;;7.70;99.90;;;;;;4414000;28;658264;-75
2024/02/11 05:26:09;;;;;;;27.90;9.90;;;7.70;99.90;;;;;;4400040;28;657679;-75
2024/02/11 05:29:01;;;;;;;33.00;10.40;;;7.60;99.90;;;;;;4432413;28;657083;-75
2024/02/11 05:31:50;;;;;;;29.10;10.53;;;7.60;99.90;;;;;;4415139;28;658761;-75
2024/02/11 05:34:39;;;;;;;31.10;11.00;;;7.60;99.90;;;;;;4431254;28;658656;-75
2024/02/11 05:37:28;;;;;;;26.70;10.90;;;7.60;99.90;;;;;;4425776;28;659193;-76
2024/02/11 05:40:15;;;;;;;27.53;12.00;;;7.50;99.90;;;;;;4388461;28;659379;-76
2024/02/11 05:43:03;;;;;;;24.57;10.73;;;7.50;99.90;;;;;;4406272;28;658527;-75
2024/02/11 05:45:52;;;;;;;27.60;10.63;;;7.60;99.90;;;;;;4417770;28;659390;-75
2024/02/11 05:48:39;;;;;;;26.47;11.30;;;7.50;99.90;;;;;;4405847;28;660281;-76
2024/02/11 05:51:27;;;;;;;34.30;12.57;;;7.50;99.90;;;;;;4428274;28;659229;-75
2024/02/11 05:54:16;;;;;;;27.63;12.40;;;7.50;99.90;;;;;;4412978;28;658765;-75
2024/02/11 05:57:06;;;;;;;31.40;13.00;;;7.50;99.90;;;;;;4410598;28;659543;-75
2024/02/11 05:59:53;;;;;;;26.20;12.67;;;7.40;99.90;;;;;;4411566;28;659479;-75
2024/02/11 06:02:42;;;;;;;29.87;12.17;;;7.50;99.90;;;;;;4434093;28;658735;-76
2024/02/11 06:05:29;;;;;;;26.07;12.17;;;7.50;99.90;;;;;;4400580;28;659398;-75
2024/02/11 06:08:16;;;;;;;28.77;12.87;;;7.60;99.90;;;;;;4425681;28;658801;-75
2024/02/11 06:11:05;;;;;;;29.15;14.00;;;7.60;99.90;;;;;;4405691;28;659179;-75
2024/02/11 06:13:54;;;;;;;35.10;16.20;;;7.60;99.90;;;;;;4412710;28;658894;-76
2024/02/11 06:16:41;;;;;;;38.40;16.53;;;7.60;99.90;;;;;;4434801;28;658854;-76
2024/02/11 06:19:30;;;;;;;38.43;16.80;;;7.50;99.90;;;;;;4401459;28;658795;-75
2024/02/11 06:22:17;;;;;;;36.67;16.70;;;7.50;99.90;;;;;;4425142;28;658905;-76
2024/02/11 06:25:05;;;;;;;33.53;14.73;;;7.50;99.90;;;;;;4407867;28;659579;-75
2024/02/11 06:27:53;;;;;;;39.40;15.20;;;7.60;99.90;;;;;;4415882;28;658809;-75
2024/02/11 06:30:40;;;;;;;50.23;18.50;;;7.60;99.90;;;;;;4441167;28;659310;-76
2024/02/11 06:33:27;;;;;;;63.77;21.50;;;7.70;99.90;;;;;;4424561;28;658393;-75
2024/02/11 06:36:16;;;;;;;56.03;19.77;;;7.70;99.90;;;;;;4430684;28;659423;-75
2024/02/11 06:39:07;;;;;;;57.30;19.50;;;7.70;99.90;;;;;;4405051;28;658869;-75
2024/02/11 06:41:55;;;;;;;49.47;17.13;;;7.70;99.90;;;;;;4401689;28;658913;-75
2024/02/11 06:44:42;;;;;;;28.77;11.27;;;7.80;99.90;;;;;;4406756;28;658197;-74
2024/02/11 06:47:30;;;;;;;28.80;11.47;;;7.90;99.90;;;;;;4431045;28;659586;-75
2024/02/11 06:50:20;;;;;;;28.93;11.67;;;8.00;99.90;;;;;;4427047;28;659048;-74
2024/02/11 06:53:09;;;;;;;29.27;11.20;;;8.00;99.90;;;;;;4412808;28;659047;-75
2024/02/11 06:55:56;;;;;;;23.07;10.87;;;8.10;99.90;;;;;;4423221;28;658593;-75
2024/02/11 06:58:43;;;;;;;22.33;10.17;;;8.10;99.90;;;;;;4406446;28;659115;-74
2024/02/11 07:01:31;;;;;;;21.60;10.85;;;8.10;99.90;;;;;;4438119;28;659760;-74
2024/02/11 07:04:18;;;;;;;29.23;12.57;;;8.10;99.90;;;;;;4417862;28;658619;-75
2024/02/11 07:07:05;;;;;;;23.37;11.50;;;8.10;99.90;;;;;;4427711;28;659310;-75
2024/02/11 07:09:54;;;;;;;25.57;11.80;;;8.10;99.90;;;;;;4411447;28;659098;-75
2024/02/11 07:12:44;;;;;;;27.87;12.73;;;8.10;1.00;;;;;;4418353;28;658546;-75
2024/02/11 07:15:33;;;;;;;25.53;11.63;;;8.20;1.00;;;;;;4404771;28;657654;-76
2024/02/11 07:18:20;;;;;;;30.23;11.30;;;8.10;1.00;;;;;;4398306;28;657847;-76
2024/02/11 07:21:11;;;;;;;22.60;9.70;;;8.10;33.90;;;;;;4410600;28;657624;-75
2024/02/11 07:23:59;;;;;;;21.27;9.73;;;8.10;1.00;;;;;;4389066;28;657547;-75
2024/02/11 07:26:48;;;;;;;20.20;9.53;;;8.10;99.90;;;;;;4440466;28;656718;-75
2024/02/11 07:29:35;;;;;;;20.30;9.13;;;8.20;99.90;;;;;;4411992;28;658071;-75
2024/02/11 07:32:23;;;;;;;14.80;8.37;;;8.20;99.90;;;;;;4408062;28;657553;-75
2024/02/11 07:35:10;;;;;;;18.73;8.50;;;8.30;54.30;;;;;;4435898;28;658736;-76
2024/02/11 07:37:58;;;;;;;18.57;8.50;;;8.30;1.00;;;;;;4424513;28;657813;-75
2024/02/11 07:40:45;;;;;;;16.97;8.57;;;8.40;1.00;;;;;;4434243;28;657692;-75
2024/02/11 07:43:34;;;;;;;18.40;7.93;;;8.40;1.00;;;;;;4406822;28;657171;-75
2024/02/11 07:46:21;;;;;;;13.83;7.80;;;8.50;1.00;;;;;;4404679;28;656344;-76
2024/02/11 07:49:10;;;;;;;17.33;7.20;;;8.50;66.50;;;;;;4382506;28;656686;-76
2024/02/11 07:51:57;;;;;;;15.47;7.77;;;8.60;99.90;;;;;;4396589;28;657569;-75
2024/02/11 07:54:46;;;;;;;14.70;7.70;;;8.70;1.00;;;;;;4418002;28;657450;-76
2024/02/11 07:57:33;;;;;;;14.10;7.50;;;8.70;1.00;;;;;;4382610;28;656836;-75
2024/02/11 08:00:22;;;;;;;15.03;7.67;;;8.80;1.00;;;;;;4412585;28;656732;-75
2024/02/11 08:03:09;;;;;;;15.73;7.67;;;8.80;99.90;;;;;;4394747;28;656625;-75
2024/02/11 08:05:56;;;;;;;18.00;7.43;;;8.80;99.90;;;;;;4418027;28;658152;-76
2024/02/11 08:08:44;;;;;;;11.43;7.20;;;8.90;99.90;;;;;;4397454;28;657471;-75
2024/02/11 08:11:33;;;;;;;13.83;7.70;;;8.90;99.90;;;;;;4403619;28;658378;-76
2024/02/11 08:14:20;;;;;;;15.27;7.40;;;8.90;99.90;;;;;;4388033;28;658577;-75
2024/02/11 08:17:09;;;;;;;14.80;7.72;;;9.10;99.90;;;;;;4391172;28;657730;-76
2024/02/11 08:19:56;;;;;;;14.17;7.70;;;9.20;99.90;;;;;;4417658;28;657441;-76
2024/02/11 08:22:44;;;;;;;16.77;7.07;;;9.30;99.90;;;;;;4401696;28;657887;-75
2024/02/11 08:25:31;;;;;;;12.03;7.17;;;9.40;99.90;;;;;;4404369;28;658387;-75
2024/02/11 08:28:18;;;;;;;12.70;6.37;;;9.40;99.90;;;;;;4398780;28;657788;-75
2024/02/11 08:31:05;;;;;;;11.07;5.80;;;9.40;99.90;;;;;;4414996;28;658298;-75
2024/02/11 08:33:54;;;;;;;10.80;6.10;;;9.50;99.90;;;;;;4394325;28;658019;-75
2024/02/11 08:36:41;;;;;;;11.13;5.17;;;9.50;99.90;;;;;;4415440;28;657846;-76
2024/02/11 08:39:29;;;;;;;10.97;5.77;;;9.60;99.90;;;;;;4395628;28;658056;-75
2024/02/11 08:42:16;;;;;;;11.90;5.50;;;9.70;99.90;;;;;;4408538;28;657943;-76
2024/02/11 08:45:03;;;;;;;8.90;4.80;;;9.60;99.90;;;;;;4381697;28;658119;-76
2024/02/11 08:47:51;;;;;;;8.83;4.60;;;9.70;99.90;;;;;;4419359;28;657549;-75
2024/02/11 08:50:40;;;;;;;8.83;4.70;;;9.80;99.90;;;;;;4400585;28;657081;-75
2024/02/11 08:53:28;;;;;;;7.30;4.07;;;9.80;99.90;;;;;;4401797;28;656945;-75
2024/02/11 08:56:16;;;;;;;7.97;4.60;;;9.80;99.90;;;;;;4418188;28;657956;-76
2024/02/11 08:59:04;;;;;;;9.07;4.43;;;9.90;99.90;;;;;;4390703;28;656403;-76
2024/02/11 09:01:51;;;;;;;10.80;4.77;;;9.90;99.90;;;;;;4398214;28;656444;-75
2024/02/11 09:04:38;;;;;;;7.57;3.67;;;9.80;99.90;;;;;;4382828;28;657601;-75
2024/02/11 09:07:27;;;;;;;8.23;4.13;;;9.80;99.90;;;;;;4417967;28;658053;-75
2024/02/11 09:10:15;;;;;;;8.53;4.50;;;9.70;99.90;;;;;;4399178;28;657957;-74
2024/02/11 09:13:02;;;;;;;10.30;4.83;;;9.70;99.90;;;;;;4410401;28;657043;-74
2024/02/11 09:15:51;;;;;;;7.83;4.30;;;9.70;99.90;;;;;;4418011;28;658343;-75
2024/02/11 09:18:38;;;;;;;12.17;4.40;;;9.60;99.90;;;;;;4406216;28;656938;-76
2024/02/11 09:21:25;;;;;;;11.30;5.17;;;9.70;99.90;;;;;;4424632;28;659245;-75
2024/02/11 09:24:14;;;;;;;8.03;4.60;;;9.60;99.90;;;;;;4393881;28;657458;-75
2024/02/11 09:27:01;;;;;;;11.47;4.80;;;9.60;99.90;;;;;;4401761;28;656355;-76
2024/02/11 09:29:48;;;;;;;9.87;5.33;;;9.60;99.90;;;;;;4379633;28;658089;-75
2024/02/11 09:32:36;;;;;;;10.40;4.80;;;9.60;99.90;;;;;;4414817;28;657652;-75
2024/02/11 09:35:23;;;;;;;15.03;5.97;;;9.60;99.90;;;;;;4397964;28;657958;-75
2024/02/11 09:38:11;;;;;;;12.40;6.20;;;9.60;99.90;;;;;;4411634;28;658344;-75
2024/02/11 09:41:03;;;;;;;13.40;6.80;;;9.60;99.90;;;;;;4392448;28;657573;-75
2024/02/11 09:43:51;;;;;;;19.40;7.27;;;9.70;99.90;;;;;;4402015;28;658307;-75
2024/02/11 09:46:38;;;;;;;17.33;7.97;;;9.60;99.90;;;;;;4400322;28;658973;-74
2024/02/11 09:49:25;;;;;;;17.30;7.57;;;9.60;99.90;;;;;;4422648;28;658516;-75
2024/02/11 09:52:14;;;;;;;15.30;7.47;;;9.50;99.90;;;;;;4384351;28;657648;-75
2024/02/11 09:55:02;;;;;;;17.70;9.07;;;9.40;99.90;;;;;;4419311;28;658545;-75
2024/02/11 09:57:51;;;;;;;22.13;9.90;;;9.40;99.90;;;;;;4388484;28;658370;-75
2024/02/11 10:00:38;;;;;;;22.13;11.37;;;9.40;99.90;;;;;;4384441;28;657746;-75
2024/02/11 10:03:27;;;;;;;23.00;10.67;;;9.40;99.90;;;;;;4413120;28;659521;-75
2024/02/11 10:06:15;;;;;;;21.77;10.70;;;9.40;99.90;;;;;;4405041;28;659883;-74
2024/02/11 10:09:04;;;;;;;18.87;10.10;;;9.40;99.90;;;;;;4418454;28;658823;-75
2024/02/11 10:11:51;;;;;;;22.27;10.47;;;9.30;99.90;;;;;;4371160;28;658473;-75
2024/02/11 10:14:40;;;;;;;24.23;10.57;;;9.30;99.90;;;;;;4376641;28;659578;-75
2024/02/11 10:17:31;;;;;;;23.57;12.00;;;9.30;99.90;;;;;;4389973;28;659262;-75
2024/02/11 10:20:18;;;;;;;25.13;13.27;;;9.30;99.90;;;;;;4386866;28;658498;-75
2024/02/11 10:23:06;;;;;;;19.57;11.57;;;9.30;99.90;;;;;;4412696;28;659382;-75
2024/02/11 10:25:53;;;;;;;18.93;10.40;;;9.30;99.90;;;;;;4392785;28;659009;-75
2024/02/11 10:28:41;;;;;;;18.77;9.97;;;9.20;99.90;;;;;;4412057;28;659680;-75
2024/02/11 10:31:30;;;;;;;21.53;10.00;;;9.30;99.90;;;;;;4393761;28;657408;-75
2024/02/11 10:34:17;;;;;;;22.03;11.03;;;9.30;99.90;;;;;;4418749;28;658451;-75
2024/02/11 10:37:05;;;;;;;24.63;12.50;;;9.30;99.90;;;;;;4433683;28;659445;-75
2024/02/11 10:39:53;;;;;;;21.40;10.27;;;9.30;99.90;;;;;;4407482;28;659172;-75
2024/02/11 10:42:41;;;;;;;17.07;9.20;;;9.30;99.90;;;;;;4414082;28;660185;-75
2024/02/11 10:45:28;;;;;;;16.93;6.93;;;9.40;99.90;;;;;;4411933;28;657315;-75
2024/02/11 10:48:19;;;;;;;14.53;8.00;;;9.40;99.90;;;;;;4429428;28;658963;-75
2024/02/11 10:51:12;;;;;;;15.20;6.33;;;9.40;99.90;;;;;;4393843;28;657403;-75
2024/02/11 10:54:00;;;;;;;13.40;5.80;;;9.40;99.90;;;;;;4408491;28;657837;-75
2024/02/11 10:56:47;;;;;;;13.07;7.17;;;9.40;99.90;;;;;;4442240;28;657920;-75
2024/02/11 10:59:37;;;;;;;15.30;8.10;;;9.50;99.90;;;;;;4433918;28;658424;-75
2024/02/11 11:02:25;;;;;;;19.50;9.30;;;9.50;99.90;;;;;;4414713;28;658838;-75
2024/02/11 11:05:17;;;;;;;16.75;9.02;;;9.60;99.90;;;;;;4401931;28;657790;-75
2024/02/11 11:08:05;;;;;;;19.87;10.10;;;9.70;99.90;;;;;;4414874;28;658714;-75
2024/02/11 11:10:52;;;;;;;14.40;8.50;;;9.80;99.90;;;;;;4421446;28;659093;-75
2024/02/11 11:13:41;;;;;;;14.17;8.07;;;9.90;99.90;;;;;;4437784;28;657903;-75
2024/02/11 11:16:29;;;;;;;15.53;8.27;;;10.00;99.90;;;;;;4410387;28;657979;-75
2024/02/11 11:19:16;;;;;;;18.88;9.63;;;10.00;99.90;;;;;;4420377;28;659011;-75
2024/02/11 11:22:08;;;;;;;16.87;7.47;;;10.10;99.90;;;;;;4396396;28;658659;-75
2024/02/11 11:24:56;;;;;;;16.27;7.70;;;10.30;99.90;;;;;;4391757;28;660724;-75
2024/02/11 11:27:43;;;;;;;17.88;6.70;;;10.30;99.90;;;;;;4394631;28;658686;-75
2024/02/11 11:30:31;;;;;;;12.17;6.60;;;10.40;99.90;;;;;;4415025;28;660202;-75
2024/02/11 11:33:20;;;;;;;7.97;5.03;;;10.50;99.90;;;;;;4401619;28;658805;-75
2024/02/11 11:36:08;;;;;;;14.57;6.60;;;10.40;99.90;;;;;;4418568;28;657480;-75
2024/02/11 11:39:07;;;;;;;10.80;5.40;;;10.40;99.90;;;;;;4439631;28;658992;-75
2024/02/11 11:41:54;;;;;;;10.67;5.33;;;10.40;99.90;;;;;;4413133;28;659326;-75
2024/02/11 11:44:42;;;;;;;8.33;5.17;;;10.40;99.90;;;;;;4439965;28;658752;-75
2024/02/11 11:47:29;;;;;;;9.90;5.50;;;10.40;99.90;;;;;;4425150;28;657722;-75
2024/02/11 11:50:19;;;;;;;10.43;5.47;;;10.40;99.90;;;;;;4450480;28;658058;-75
2024/02/11 11:53:07;;;;;;;9.80;5.80;;;10.40;99.90;;;;;;4410709;28;658816;-75
2024/02/11 11:55:56;;;;;;;11.70;6.50;;;10.40;99.90;;;;;;4428491;28;657798;-76
2024/02/11 11:58:43;;;;;;;11.17;5.10;;;10.40;99.90;;;;;;4430335;28;659531;-75
2024/02/11 12:01:31;;;;;;;8.10;4.90;;;10.40;99.90;;;;;;4447380;28;658943;-75
2024/02/11 12:04:18;;;;;;;9.63;5.23;;;10.30;99.90;;;;;;4429679;28;657650;-75
2024/02/11 12:07:07;;;;;;;10.07;5.20;;;10.30;99.90;;;;;;4449336;28;658782;-75
2024/02/11 12:09:54;;;;;;;8.23;5.10;;;10.30;99.90;;;;;;4428924;28;659972;-75
2024/02/11 12:12:43;;;;;;;10.97;6.10;;;10.40;99.90;;;;;;4431146;28;658259;-75
2024/02/11 12:15:30;;;;;;;10.00;5.63;;;10.40;99.90;;;;;;4408388;28;659067;-75
2024/02/11 12:18:18;;;;;;;11.63;5.67;;;10.40;99.90;;;;;;4410278;28;658784;-75
2024/02/11 12:21:07;;;;;;;13.50;5.90;;;10.40;99.90;;;;;;4440062;28;659592;-75
2024/02/11 12:23:54;;;;;;;11.33;6.47;;;10.40;99.90;;;;;;4429196;28;658975;-75
2024/02/11 12:26:41;;;;;;;12.53;7.07;;;10.40;99.90;;;;;;4431483;28;658549;-75
2024/02/11 12:29:30;;;;;;;13.43;7.37;;;10.30;99.90;;;;;;4425774;28;658633;-75
2024/02/11 12:32:17;;;;;;;13.27;6.60;;;10.30;99.90;;;;;;4432148;28;658675;-75
2024/02/11 12:35:05;;;;;;;18.50;7.90;;;10.40;99.90;;;;;;4445128;28;658923;-75
2024/02/11 12:37:52;;;;;;;22.97;9.77;;;10.30;99.90;;;;;;4431053;28;658782;-75
2024/02/11 12:40:40;;;;;;;15.90;8.00;;;10.30;99.90;;;;;;4447923;28;659395;-75
2024/02/11 12:43:28;;;;;;;22.30;9.40;;;10.20;99.90;;;;;;4412644;28;658929;-75
2024/02/11 12:46:16;;;;;;;22.90;7.97;;;10.20;99.90;;;;;;4430722;28;658909;-76
2024/02/11 12:49:03;;;;;;;17.77;8.20;;;10.10;99.90;;;;;;4413876;28;659672;-76
2024/02/11 12:51:51;;;;;;;16.13;7.85;;;10.10;99.90;;;;;;4451020;28;659269;-75
2024/02/11 12:54:38;;;;;;;12.97;6.93;;;10.10;99.90;;;;;;4429258;28;658804;-75
2024/02/11 12:57:26;;;;;;;12.63;7.03;;;10.10;99.90;;;;;;4452621;28;659240;-75
2024/02/11 13:00:15;;;;;;;15.17;7.60;;;10.10;99.90;;;;;;4424626;28;659148;-75
2024/02/11 13:03:04;;;;;;;17.40;7.60;;;10.00;99.90;;;;;;4445656;28;658534;-74
2024/02/11 13:05:52;;;;;;;16.00;8.33;;;10.00;99.90;;;;;;4448425;28;658889;-75
2024/02/11 13:08:41;;;;;;;19.67;10.07;;;10.00;99.90;;;;;;4425563;28;660280;-74
2024/02/11 13:11:28;;;;;;;21.60;10.27;;;10.00;99.90;;;;;;4408835;28;660008;-74
2024/02/11 13:14:15;;;;;;;26.50;12.00;;;10.00;99.90;;;;;;4431229;28;660047;-75
2024/02/11 13:17:03;;;;;;;25.37;11.97;;;10.00;99.90;;;;;;4410954;28;660356;-75
2024/02/11 13:19:52;;;;;;;28.47;12.37;;;10.00;99.90;;;;;;4434669;28;660294;-74
2024/02/11 13:22:39;;;;;;;22.23;10.87;;;10.00;99.90;;;;;;4424278;28;661179;-75
2024/02/11 13:25:26;;;;;;;23.63;11.17;;;10.00;99.90;;;;;;4445072;28;660194;-75
2024/02/11 13:28:14;;;;;;;24.43;11.17;;;9.90;99.90;;;;;;4424588;28;660278;-75
2024/02/11 13:31:03;;;;;;;25.67;11.43;;;9.90;97.20;;;;;;4451930;28;659149;-75
2024/02/11 13:33:50;;;;;;;30.67;13.20;;;9.90;99.90;;;;;;4418930;28;658917;-74
2024/02/11 13:36:39;;;;;;;30.87;13.10;;;9.90;1.00;;;;;;4411196;28;658900;-75
2024/02/11 13:39:29;;;;;;;29.43;13.10;;;9.90;1.00;;;;;;4439471;28;657937;-75
2024/02/11 13:42:16;;;;;;;31.17;14.07;;;9.80;1.00;;;;;;4428969;28;658341;-75
2024/02/11 13:45:04;;;;;;;26.50;13.60;;;9.80;99.90;;;;;;4425200;28;657917;-75
2024/02/11 13:47:51;;;;;;;29.10;13.43;;;9.80;99.90;;;;;;4446179;28;659042;-75
2024/02/11 13:50:39;;;;;;;26.37;12.60;;;9.70;99.90;;;;;;4412268;28;658679;-75
2024/02/11 13:53:28;;;;;;;24.63;11.00;;;9.70;99.90;;;;;;4451515;28;658389;-75
2024/02/11 13:56:16;;;;;;;24.13;13.00;;;9.70;99.90;;;;;;4387485;28;659652;-75
2024/02/11 13:59:03;;;;;;;27.33;13.33;;;9.60;99.90;;;;;;4421520;28;659316;-74
2024/02/11 14:01:50;;;;;;;30.47;14.07;;;9.60;99.90;;;;;;4437745;28;658896;-75
2024/02/11 14:04:38;;;;;;;33.33;15.37;;;9.50;99.90;;;;;;4409898;28;658868;-75
2024/02/11 14:07:25;;;;;;;26.23;12.70;;;9.50;99.90;;;;;;4429188;28;659531;-75
2024/02/11 14:10:14;;;;;;;26.77;15.17;;;9.50;99.90;;;;;;4409363;28;658422;-75
2024/02/11 14:13:03;;;;;;;29.90;15.73;;;9.50;99.90;;;;;;4432683;28;658454;-75
2024/02/11 14:15:50;;;;;;;29.23;14.90;;;9.40;99.90;;;;;;4387909;28;659046;-74